Time;durP1;ratioP1;P1;durP2;ratioP2;P2;SDS_P1;SDS_P2;PMS_P1;PMS_P2;Temp;Humidity;BMP_temperature;BMP_pressure;BME280_temperature;BME280_humidity;BME280_pressure;Samples;Min_cycle;Max_cycle;Signal;HPM_P1;HPM_P2
2024/02/11 00:02:11;;;;;;;13.93;6.30;;;9.70;99.90;;;;;;5013809;28;20029;-57
2024/02/11 00:04:37;;;;;;;11.47;6.50;;;9.70;99.90;;;;;;5013654;28;20028;-58
2024/02/11 00:07:05;;;;;;;11.70;6.63;;;9.70;99.90;;;;;;5013467;28;20101;-58
2024/02/11 00:09:31;;;;;;;11.70;6.53;;;9.70;99.90;;;;;;5013027;28;20084;-58
2024/02/11 00:11:56;;;;;;;10.77;6.20;;;9.70;99.90;;;;;;5013486;28;20061;-59
2024/02/11 00:14:22;;;;;;;11.17;5.80;;;9.70;99.90;;;;;;5012914;28;20029;-59
2024/02/11 00:16:48;;;;;;;13.13;6.20;;;9.80;99.90;;;;;;5013226;28;20395;-58
2024/02/11 00:19:13;;;;;;;11.03;5.70;;;9.80;99.90;;;;;;5012579;28;20049;-59
2024/02/11 00:21:39;;;;;;;10.83;5.43;;;9.80;99.90;;;;;;5012873;28;20032;-59
2024/02/11 00:24:06;;;;;;;9.97;5.83;;;9.80;99.90;;;;;;5012736;28;20026;-58
2024/02/11 00:26:31;;;;;;;10.93;5.83;;;9.80;99.90;;;;;;5013008;28;20100;-57
2024/02/11 00:28:57;;;;;;;10.07;5.77;;;9.90;99.90;;;;;;5012290;28;20038;-57
2024/02/11 00:31:26;;;;;;;10.93;5.60;;;9.90;99.90;;;;;;5012679;28;20033;-58
2024/02/11 00:33:51;;;;;;;12.18;5.47;;;9.90;99.90;;;;;;5012555;28;20121;-57
2024/02/11 00:36:17;;;;;;;11.13;6.30;;;9.90;99.90;;;;;;5012734;28;20488;-58
2024/02/11 00:38:43;;;;;;;10.53;5.93;;;9.90;99.90;;;;;;5012211;28;20382;-57
2024/02/11 00:41:09;;;;;;;10.40;6.10;;;9.90;99.90;;;;;;5012784;28;20037;-58
2024/02/11 00:43:36;;;;;;;12.27;6.07;;;10.00;99.90;;;;;;5012305;28;20026;-56
2024/02/11 00:46:02;;;;;;;10.07;5.67;;;9.90;99.90;;;;;;5012284;28;20034;-56
2024/02/11 00:48:29;;;;;;;13.33;6.10;;;9.90;99.90;;;;;;5012349;28;20049;-59
2024/02/11 00:50:56;;;;;;;9.63;5.63;;;9.90;99.90;;;;;;5012346;28;20463;-58
2024/02/11 00:53:25;;;;;;;11.10;5.70;;;9.90;99.90;;;;;;5012323;28;20398;-56
2024/02/11 00:55:51;;;;;;;8.40;4.90;;;9.90;99.90;;;;;;5012357;28;20030;-57
2024/02/11 00:58:18;;;;;;;9.57;5.27;;;9.90;99.90;;;;;;5010874;28;20045;-59
2024/02/11 01:00:46;;;;;;;10.37;5.60;;;9.80;99.90;;;;;;5012068;28;20037;-58
2024/02/11 01:03:13;;;;;;;9.43;5.10;;;9.80;99.90;;;;;;5012155;28;20034;-58
2024/02/11 01:05:42;;;;;;;10.17;5.63;;;9.80;99.90;;;;;;5012188;28;20519;-57
2024/02/11 01:08:08;;;;;;;17.25;6.82;;;9.80;99.90;;;;;;5012194;28;20030;-58
2024/02/11 01:10:34;;;;;;;12.50;5.73;;;9.80;99.90;;;;;;5014875;28;20029;-58
2024/02/11 01:13:00;;;;;;;13.10;6.30;;;9.80;99.90;;;;;;5016216;28;20091;-59
2024/02/11 01:15:26;;;;;;;11.57;5.73;;;9.80;99.90;;;;;;5016080;28;20069;-59
2024/02/11 01:17:52;;;;;;;10.77;5.43;;;9.70;99.90;;;;;;5016083;28;20057;-59
2024/02/11 01:20:18;;;;;;;8.47;5.10;;;9.70;99.90;;;;;;5016055;28;20037;-58
2024/02/11 01:22:46;;;;;;;9.30;5.17;;;9.70;99.90;;;;;;5015980;28;20483;-59
2024/02/11 01:25:19;;;;;;;9.47;5.10;;;9.70;99.90;;;;;;5016010;28;20489;-57
2024/02/11 01:27:47;;;;;;;10.67;5.57;;;9.70;99.90;;;;;;5016051;28;20445;-57
2024/02/11 01:30:14;;;;;;;11.25;5.38;;;9.70;99.90;;;;;;5015952;28;20030;-58
2024/02/11 01:32:39;;;;;;;12.57;5.87;;;9.70;99.90;;;;;;5015991;28;20327;-59
2024/02/11 01:35:07;;;;;;;9.17;4.87;;;9.70;99.90;;;;;;5015983;28;20463;-58
2024/02/11 01:37:34;;;;;;;13.27;4.93;;;9.60;99.90;;;;;;5015744;28;20116;-57
2024/02/11 01:40:00;;;;;;;8.77;4.93;;;9.70;99.90;;;;;;5015636;28;20034;-59
2024/02/11 01:42:26;;;;;;;10.53;6.50;;;9.60;99.90;;;;;;5015774;28;20105;-59
2024/02/11 01:44:51;;;;;;;11.83;5.10;;;9.60;99.90;;;;;;5014405;28;20582;-58
2024/02/11 01:47:18;;;;;;;9.20;5.03;;;9.60;99.90;;;;;;5015640;28;20034;-58
2024/02/11 01:49:44;;;;;;;14.07;5.40;;;9.60;99.90;;;;;;5015692;28;20029;-59
2024/02/11 01:52:12;;;;;;;10.93;5.00;;;9.60;99.90;;;;;;5015664;28;20049;-59
2024/02/11 01:54:38;;;;;;;12.00;5.83;;;9.60;99.90;;;;;;5014176;28;20116;-58
2024/02/11 01:57:04;;;;;;;11.33;5.73;;;9.60;99.90;;;;;;5015422;28;20034;-58
2024/02/11 01:59:32;;;;;;;10.83;4.90;;;9.70;99.90;;;;;;5015451;28;20445;-59
2024/02/11 02:01:58;;;;;;;11.70;5.07;;;9.60;99.90;;;;;;5015419;28;20045;-58
2024/02/11 02:04:26;;;;;;;10.07;5.17;;;9.60;99.90;;;;;;5015450;28;20036;-58
2024/02/11 02:06:52;;;;;;;10.77;5.77;;;9.60;99.90;;;;;;5015413;28;20045;-58
2024/02/11 02:09:18;;;;;;;10.47;5.10;;;9.70;99.90;;;;;;5015058;28;20037;-58
2024/02/11 02:11:44;;;;;;;9.53;5.27;;;9.70;99.90;;;;;;5015280;28;20059;-59
2024/02/11 02:14:10;;;;;;;10.77;5.40;;;9.70;99.90;;;;;;5014011;28;20034;-58
2024/02/11 02:16:35;;;;;;;9.30;5.30;;;9.70;99.90;;;;;;5015314;28;20394;-59
2024/02/11 02:19:01;;;;;;;8.53;5.10;;;9.60;99.90;;;;;;5014864;28;20036;-58
2024/02/11 02:21:27;;;;;;;12.17;6.20;;;9.60;99.90;;;;;;5014966;28;20034;-58
2024/02/11 02:23:53;;;;;;;9.33;5.60;;;9.60;99.90;;;;;;5015218;28;20072;-56
2024/02/11 02:26:18;;;;;;;9.67;4.80;;;9.60;99.90;;;;;;5015265;28;20148;-57
2024/02/11 02:28:44;;;;;;;8.63;4.77;;;9.60;99.90;;;;;;5014907;28;20068;-56
2024/02/11 02:31:10;;;;;;;7.83;4.43;;;9.70;99.90;;;;;;5013634;28;20045;-59
2024/02/11 02:33:37;;;;;;;7.37;4.20;;;9.70;99.90;;;;;;5013893;28;20176;-58
2024/02/11 02:36:05;;;;;;;7.63;4.23;;;9.70;99.90;;;;;;5014929;28;20037;-58
2024/02/11 02:38:32;;;;;;;10.10;3.47;;;9.70;99.90;;;;;;5014601;28;20530;-57
2024/02/11 02:40:58;;;;;;;6.97;3.73;;;9.80;99.90;;;;;;5014627;28;20041;-58
2024/02/11 02:43:25;;;;;;;6.90;3.67;;;9.80;99.90;;;;;;5014470;28;20033;-58
2024/02/11 02:45:51;;;;;;;6.73;3.57;;;9.80;99.90;;;;;;5014774;28;20026;-58
2024/02/11 02:48:17;;;;;;;5.90;3.57;;;9.80;99.90;;;;;;5014595;28;20034;-58
2024/02/11 02:50:43;;;;;;;6.57;3.33;;;9.80;99.90;;;;;;5014571;28;20029;-58
2024/02/11 02:53:10;;;;;;;5.80;2.90;;;10.00;99.90;;;;;;5014436;28;20041;-58
2024/02/11 02:55:37;;;;;;;5.73;3.10;;;10.00;99.90;;;;;;5014619;28;20041;-56
2024/02/11 02:58:08;;;;;;;6.07;2.93;;;10.00;99.90;;;;;;5014489;28;20034;-58
2024/02/11 03:00:35;;;;;;;5.37;2.70;;;10.00;99.90;;;;;;5013146;28;20034;-59
2024/02/11 03:03:03;;;;;;;5.10;2.73;;;10.00;99.90;;;;;;5014514;28;20391;-59
2024/02/11 03:05:29;;;;;;;6.43;3.17;;;10.00;99.90;;;;;;5014401;28;20038;-59
2024/02/11 03:07:56;;;;;;;6.07;2.90;;;10.10;99.90;;;;;;5014132;28;20026;-59
2024/02/11 03:10:22;;;;;;;6.30;2.67;;;10.10;99.90;;;;;;5014362;28;20037;-59
2024/02/11 03:12:49;;;;;;;6.43;2.87;;;10.20;99.90;;;;;;5014455;28;20037;-59
2024/02/11 03:15:16;;;;;;;7.10;2.97;;;10.00;99.90;;;;;;5014500;28;20030;-59
2024/02/11 03:17:42;;;;;;;5.83;3.10;;;10.00;99.90;;;;;;5014352;28;20018;-57
2024/02/11 03:20:08;;;;;;;5.93;3.10;;;10.00;99.90;;;;;;5014173;28;20117;-58
2024/02/11 03:22:34;;;;;;;6.33;3.13;;;10.10;99.90;;;;;;5014152;28;20491;-59
2024/02/11 03:24:59;;;;;;;4.93;2.80;;;10.10;99.90;;;;;;5013904;28;20127;-59
2024/02/11 03:27:25;;;;;;;5.03;3.03;;;10.00;99.90;;;;;;5013868;28;20109;-59
2024/02/11 03:29:51;;;;;;;7.53;3.37;;;9.90;99.90;;;;;;5012462;28;20471;-58
2024/02/11 03:32:16;;;;;;;6.57;3.23;;;9.90;99.90;;;;;;5012871;28;20030;-59
2024/02/11 03:34:42;;;;;;;6.23;3.13;;;9.80;99.90;;;;;;5012572;28;20045;-58
2024/02/11 03:37:07;;;;;;;6.00;3.17;;;9.80;99.90;;;;;;5013686;28;20052;-58
2024/02/11 03:39:34;;;;;;;5.17;2.80;;;9.80;99.90;;;;;;5013365;28;20169;-58
2024/02/11 03:42:01;;;;;;;5.13;3.23;;;9.80;99.90;;;;;;5013682;28;20046;-59
2024/02/11 03:44:27;;;;;;;6.93;2.90;;;9.80;99.90;;;;;;5013598;28;20471;-56
2024/02/11 03:46:52;;;;;;;5.17;2.93;;;9.70;99.90;;;;;;5013628;28;20034;-59
2024/02/11 03:49:18;;;;;;;6.03;3.00;;;9.70;99.90;;;;;;5013124;28;20108;-59
2024/02/11 03:51:46;;;;;;;7.20;3.23;;;9.80;99.90;;;;;;5013413;28;20538;-59
2024/02/11 03:54:12;;;;;;;6.27;3.40;;;9.70;99.90;;;;;;5013204;28;20479;-59
2024/02/11 03:56:41;;;;;;;6.53;3.10;;;9.70;99.90;;;;;;5013482;28;20060;-59
2024/02/11 03:59:10;;;;;;;5.10;2.90;;;9.70;99.90;;;;;;5013089;28;20465;-59
2024/02/11 04:01:36;;;;;;;8.87;3.47;;;9.70;99.90;;;;;;5013255;28;20026;-59
2024/02/11 04:04:03;;;;;;;9.60;3.27;;;9.70;99.90;;;;;;5012971;28;20030;-57
2024/02/11 04:06:30;;;;;;;5.37;2.90;;;9.60;99.90;;;;;;5012035;28;20213;-58
2024/02/11 04:08:56;;;;;;;6.37;3.00;;;9.70;99.90;;;;;;5013141;28;20044;-59
2024/02/11 04:11:26;;;;;;;4.63;2.97;;;9.70;99.90;;;;;;5012941;28;20122;-56
2024/02/11 04:13:54;;;;;;;6.67;3.33;;;9.70;99.90;;;;;;5012992;28;20537;-59
2024/02/11 04:16:22;;;;;;;6.63;3.87;;;9.70;99.90;;;;;;5013040;28;20034;-58
2024/02/11 04:18:51;;;;;;;6.70;3.47;;;9.70;99.90;;;;;;5012741;28;20483;-58
2024/02/11 04:21:20;;;;;;;7.80;3.67;;;9.70;99.90;;;;;;5012939;28;20046;-59
2024/02/11 04:23:48;;;;;;;6.18;3.33;;;9.70;99.90;;;;;;5012747;28;20407;-55
2024/02/11 04:26:17;;;;;;;7.23;3.53;;;9.70;99.90;;;;;;5012817;28;20041;-56
2024/02/11 04:28:47;;;;;;;9.00;3.78;;;9.80;99.90;;;;;;5012612;28;20039;-57
2024/02/11 04:31:13;;;;;;;6.90;3.70;;;9.80;99.90;;;;;;5012470;28;20030;-58
2024/02/11 04:33:39;;;;;;;5.07;3.10;;;9.90;99.90;;;;;;5011505;28;20037;-58
2024/02/11 04:36:11;;;;;;;7.87;3.23;;;9.90;99.90;;;;;;5012719;28;20037;-58
2024/02/11 04:38:37;;;;;;;6.77;4.10;;;9.90;99.90;;;;;;5012375;28;20037;-59
2024/02/11 04:41:04;;;;;;;6.17;3.07;;;9.90;99.90;;;;;;5012491;28;20034;-58
2024/02/11 04:43:33;;;;;;;6.27;3.27;;;9.90;99.90;;;;;;5012151;28;20045;-58
2024/02/11 04:45:59;;;;;;;5.53;3.57;;;10.00;99.90;;;;;;5012460;28;20021;-59
2024/02/11 04:48:25;;;;;;;6.93;3.10;;;10.00;99.90;;;;;;5012297;28;20961;-59
2024/02/11 04:50:51;;;;;;;6.03;3.40;;;10.00;99.90;;;;;;5012455;28;20044;-57
2024/02/11 04:53:18;;;;;;;7.73;3.57;;;10.10;99.90;;;;;;5012347;28;20494;-58
2024/02/11 04:55:46;;;;;;;6.40;3.63;;;10.10;99.90;;;;;;5011589;28;20037;-54
2024/02/11 04:58:15;;;;;;;6.05;3.15;;;10.10;99.90;;;;;;5012046;28;20045;-57
2024/02/11 05:00:41;;;;;;;6.38;3.33;;;10.10;99.90;;;;;;5012208;28;20594;-59
2024/02/11 05:03:07;;;;;;;6.77;3.23;;;10.10;99.90;;;;;;5012349;28;20072;-56
2024/02/11 05:05:36;;;;;;;7.83;3.37;;;10.10;99.90;;;;;;5011194;28;20423;-59
2024/02/11 05:08:03;;;;;;;6.35;3.17;;;10.10;99.90;;;;;;5012048;28;20473;-58
2024/02/11 05:10:34;;;;;;;5.80;3.10;;;10.10;99.90;;;;;;5012139;28;20449;-57
2024/02/11 05:13:04;;;;;;;5.47;3.17;;;10.20;99.90;;;;;;5012160;28;20030;-59
2024/02/11 05:15:30;;;;;;;5.30;2.87;;;10.20;99.90;;;;;;5012371;28;20034;-59
2024/02/11 05:17:56;;;;;;;7.00;2.57;;;10.20;99.90;;;;;;5011823;28;20386;-57
2024/02/11 05:20:23;;;;;;;5.77;2.70;;;10.20;99.90;;;;;;5012040;28;20022;-57
2024/02/11 05:22:50;;;;;;;8.60;3.27;;;10.30;99.90;;;;;;5012119;28;20042;-57
2024/02/11 05:25:19;;;;;;;8.40;3.10;;;10.40;99.90;;;;;;5011907;28;20025;-57
2024/02/11 05:27:59;;;;;;;;;;;10.40;99.90;;;;;;5013252;28;20022;-57
2024/02/11 05:30:29;;;;;;;5.27;3.13;;;10.40;99.90;;;;;;5012055;28;19909;-59
2024/02/11 05:32:57;;;;;;;4.93;2.87;;;10.30;99.90;;;;;;5012392;28;20474;-56
2024/02/11 05:35:28;;;;;;;6.40;3.13;;;10.30;99.90;;;;;;5012587;28;20110;-58
2024/02/11 05:38:01;;;;;;;8.10;3.90;;;10.40;99.90;;;;;;5011606;28;20057;-58
2024/02/11 05:40:41;;;;;;;6.63;3.47;;;10.30;99.90;;;;;;5011968;28;20471;-58
2024/02/11 05:43:15;;;;;;;6.80;3.50;;;10.20;99.90;;;;;;5011846;28;20045;-59
2024/02/11 05:45:41;;;;;;;5.03;3.17;;;10.30;99.90;;;;;;5010664;28;20049;-58
2024/02/11 05:48:07;;;;;;;6.53;3.40;;;10.40;99.90;;;;;;5011728;28;20026;-57
2024/02/11 05:50:34;;;;;;;6.40;3.67;;;10.50;99.90;;;;;;5011598;28;20483;-59
2024/02/11 05:53:00;;;;;;;7.37;3.50;;;10.40;99.90;;;;;;5010660;28;20037;-58
2024/02/11 05:55:26;;;;;;;7.97;4.00;;;10.40;99.90;;;;;;5012502;28;20037;-58
2024/02/11 05:57:53;;;;;;;7.10;4.30;;;10.30;99.90;;;;;;5014345;28;20030;-56
2024/02/11 06:00:24;;;;;;;8.40;3.67;;;10.30;99.90;;;;;;5015398;28;20034;-57
2024/02/11 06:02:53;;;;;;;9.40;4.30;;;10.30;99.90;;;;;;5015353;28;20033;-59
2024/02/11 06:05:19;;;;;;;8.43;4.50;;;10.30;99.90;;;;;;5015385;28;20091;-59
2024/02/11 06:07:49;;;;;;;8.20;4.50;;;10.20;99.90;;;;;;5015219;28;20048;-59
2024/02/11 06:10:16;;;;;;;8.33;4.30;;;10.20;99.90;;;;;;5015204;28;20041;-59
2024/02/11 06:12:43;;;;;;;6.63;4.17;;;10.20;99.90;;;;;;5013962;28;20030;-59
2024/02/11 06:15:10;;;;;;;8.10;3.50;;;10.30;99.90;;;;;;5015328;28;20430;-58
2024/02/11 06:17:40;;;;;;;6.07;2.23;;;10.10;99.90;;;;;;5015145;28;20042;-58
2024/02/11 06:20:09;;;;;;;1.77;1.10;;;10.00;99.90;;;;;;5015120;28;20045;-58
2024/02/11 06:22:37;;;;;;;2.17;1.00;;;9.70;99.90;;;;;;5015120;28;20058;-56
2024/02/11 06:25:03;;;;;;;3.50;1.55;;;9.60;99.90;;;;;;5015759;28;20021;-58
2024/02/11 06:27:29;;;;;;;3.70;1.60;;;9.50;99.90;;;;;;5015580;28;20061;-58
2024/02/11 06:29:55;;;;;;;3.13;1.73;;;9.40;99.90;;;;;;5015399;28;20037;-57
2024/02/11 06:32:21;;;;;;;4.30;2.73;;;9.30;99.90;;;;;;5015153;28;20034;-60
2024/02/11 06:34:46;;;;;;;7.07;3.03;;;9.30;99.90;;;;;;5015109;28;20537;-58
2024/02/11 06:37:12;;;;;;;6.23;2.80;;;9.20;99.90;;;;;;5015263;28;20041;-58
2024/02/11 06:39:39;;;;;;;6.23;2.77;;;9.10;99.90;;;;;;5014833;28;20060;-59
2024/02/11 06:42:09;;;;;;;3.73;2.20;;;8.90;99.90;;;;;;5013631;28;20076;-58
2024/02/11 06:44:38;;;;;;;4.07;2.33;;;8.90;99.90;;;;;;5014664;28;20034;-58
2024/02/11 06:47:11;;;;;;;3.67;2.30;;;8.80;99.90;;;;;;5014970;28;20030;-58
2024/02/11 06:49:38;;;;;;;3.40;1.83;;;8.70;99.90;;;;;;5014768;28;20038;-57
2024/02/11 06:52:05;;;;;;;6.80;2.50;;;8.70;99.90;;;;;;5014926;28;20033;-58
2024/02/11 06:54:32;;;;;;;5.70;2.60;;;8.60;99.90;;;;;;5014687;28;20088;-58
2024/02/11 06:56:58;;;;;;;8.03;2.47;;;8.60;99.90;;;;;;5014633;28;20034;-57
2024/02/11 06:59:23;;;;;;;5.57;2.80;;;8.60;99.90;;;;;;5014352;28;20037;-58
2024/02/11 07:01:49;;;;;;;9.77;2.90;;;8.60;99.90;;;;;;5014588;28;20060;-58
2024/02/11 07:04:15;;;;;;;5.67;2.33;;;8.60;99.90;;;;;;5014410;28;20026;-58
2024/02/11 07:06:48;;;;;;;7.33;2.50;;;8.50;99.90;;;;;;5013454;28;20347;-57
2024/02/11 07:09:17;;;;;;;7.93;2.57;;;8.60;99.90;;;;;;5013977;28;20022;-58
2024/02/11 07:11:43;;;;;;;7.78;2.45;;;8.60;99.90;;;;;;5014087;28;20049;-57
2024/02/11 07:14:09;;;;;;;7.90;2.87;;;8.60;99.90;;;;;;5014076;28;20037;-56
2024/02/11 07:16:38;;;;;;;6.83;2.90;;;8.60;99.90;;;;;;5014019;28;20034;-57
2024/02/11 07:19:04;;;;;;;10.48;2.97;;;8.50;99.90;;;;;;5013860;28;20129;-58
2024/02/11 07:21:31;;;;;;;7.13;2.43;;;8.50;99.90;;;;;;5013870;28;20092;-58
2024/02/11 07:23:58;;;;;;;7.23;2.43;;;8.50;99.90;;;;;;5014019;28;20041;-58
2024/02/11 07:26:24;;;;;;;9.33;2.73;;;8.50;99.90;;;;;;5014197;28;20124;-58
2024/02/11 07:28:50;;;;;;;7.93;2.40;;;8.50;99.90;;;;;;5013925;28;20069;-58
2024/02/11 07:31:19;;;;;;;7.17;2.03;;;8.50;99.90;;;;;;5013823;28;20037;-57
2024/02/11 07:33:45;;;;;;;6.35;2.10;;;8.50;99.90;;;;;;5013911;28;20487;-57
2024/02/11 07:36:11;;;;;;;6.30;1.73;;;8.50;99.90;;;;;;5013962;28;20040;-58
2024/02/11 07:38:36;;;;;;;3.50;1.80;;;8.50;99.90;;;;;;5012546;28;20045;-59
2024/02/11 07:41:05;;;;;;;5.20;2.00;;;8.50;99.90;;;;;;5013959;28;20022;-58
2024/02/11 07:43:30;;;;;;;6.93;2.13;;;8.50;99.90;;;;;;5014104;28;20426;-59
2024/02/11 07:45:57;;;;;;;7.90;1.87;;;8.50;99.90;;;;;;5013935;28;20083;-57
2024/02/11 07:48:27;;;;;;;3.90;1.47;;;8.50;99.90;;;;;;5013425;28;20087;-57
2024/02/11 07:50:53;;;;;;;4.53;1.57;;;8.60;99.90;;;;;;5013662;28;20037;-58
2024/02/11 07:53:19;;;;;;;6.27;1.57;;;8.60;99.90;;;;;;5013405;28;20030;-58
2024/02/11 07:55:45;;;;;;;8.93;2.23;;;8.60;99.90;;;;;;5013621;28;20028;-58
2024/02/11 07:58:11;;;;;;;8.80;1.80;;;8.70;99.90;;;;;;5013150;28;20034;-58
2024/02/11 08:00:38;;;;;;;7.40;2.33;;;8.70;99.90;;;;;;5013304;28;20037;-58
2024/02/11 08:03:07;;;;;;;5.30;1.93;;;8.80;99.90;;;;;;5013373;28;20061;-58
2024/02/11 08:05:34;;;;;;;11.30;2.97;;;8.80;99.90;;;;;;5013595;28;20030;-56
2024/02/11 08:07:59;;;;;;;8.83;2.97;;;8.80;99.90;;;;;;5013153;28;20026;-54
2024/02/11 08:10:25;;;;;;;8.07;2.73;;;8.80;99.90;;;;;;5013236;28;20033;-56
2024/02/11 08:12:55;;;;;;;10.80;2.97;;;8.90;99.90;;;;;;5013304;28;20429;-58
2024/02/11 08:15:20;;;;;;;8.00;2.72;;;8.90;99.90;;;;;;5013120;28;20045;-59
2024/02/11 08:17:46;;;;;;;8.87;2.43;;;9.00;99.90;;;;;;5011679;28;20022;-59
2024/02/11 08:20:12;;;;;;;11.73;2.57;;;8.90;99.90;;;;;;5012528;28;20510;-57
2024/02/11 08:22:38;;;;;;;8.53;2.50;;;8.80;99.90;;;;;;5012922;28;20030;-59
2024/02/11 08:25:07;;;;;;;9.27;2.60;;;8.80;99.90;;;;;;5012761;28;20034;-58
2024/02/11 08:27:34;;;;;;;12.03;2.60;;;8.70;99.90;;;;;;5012725;28;20034;-59
2024/02/11 08:29:59;;;;;;;9.10;2.03;;;8.70;99.90;;;;;;5012728;28;20049;-59
2024/02/11 08:32:25;;;;;;;7.27;2.20;;;8.70;99.90;;;;;;5012887;28;20026;-59
2024/02/11 08:34:51;;;;;;;7.77;2.17;;;8.60;99.90;;;;;;5012708;28;20487;-57
2024/02/11 08:37:17;;;;;;;7.87;2.30;;;8.70;99.90;;;;;;5012704;28;20038;-58
2024/02/11 08:39:43;;;;;;;9.73;2.73;;;8.70;99.90;;;;;;5012216;28;20083;-59
2024/02/11 08:42:09;;;;;;;6.60;2.50;;;8.60;99.90;;;;;;5012498;28;20029;-59
2024/02/11 08:44:36;;;;;;;10.30;2.20;;;8.60;99.90;;;;;;5012348;28;20038;-59
2024/02/11 08:47:02;;;;;;;13.43;2.33;;;8.60;99.90;;;;;;5012620;28;20022;-59
2024/02/11 08:49:31;;;;;;;6.40;2.00;;;8.60;99.90;;;;;;5012137;28;20116;-59
2024/02/11 08:51:56;;;;;;;8.80;1.90;;;8.60;99.90;;;;;;5012411;28;20479;-57
2024/02/11 08:54:22;;;;;;;8.93;2.60;;;8.70;99.90;;;;;;5012431;28;20026;-57
2024/02/11 08:56:48;;;;;;;6.93;2.13;;;8.60;99.90;;;;;;5012435;28;20036;-56
2024/02/11 08:59:13;;;;;;;8.67;2.00;;;8.60;99.90;;;;;;5012030;28;20038;-59
2024/02/11 09:01:40;;;;;;;10.20;2.07;;;8.50;99.90;;;;;;5012366;28;20033;-58
2024/02/11 09:04:06;;;;;;;9.80;2.97;;;8.50;99.90;;;;;;5012133;28;20030;-58
2024/02/11 09:06:33;;;;;;;7.83;2.20;;;8.50;99.90;;;;;;5012260;28;20092;-59
2024/02/11 09:08:58;;;;;;;7.73;2.87;;;8.60;99.90;;;;;;5012412;28;20415;-59
2024/02/11 09:11:25;;;;;;;12.20;2.90;;;8.60;99.90;;;;;;5012359;28;20041;-58
2024/02/11 09:13:50;;;;;;;9.00;2.50;;;8.50;99.90;;;;;;5012155;28;20121;-58
2024/02/11 09:16:19;;;;;;;5.27;2.57;;;8.60;99.90;;;;;;5012268;28;20121;-58
2024/02/11 09:18:44;;;;;;;8.23;2.67;;;8.60;99.90;;;;;;5010573;28;20030;-58
2024/02/11 09:21:11;;;;;;;6.07;2.50;;;8.70;99.90;;;;;;5012163;28;20375;-58
2024/02/11 09:23:36;;;;;;;7.13;2.60;;;8.70;99.90;;;;;;5012286;28;20034;-58
2024/02/11 09:26:02;;;;;;;8.73;2.60;;;8.60;99.90;;;;;;5012182;28;20074;-57
2024/02/11 09:28:29;;;;;;;6.60;2.30;;;8.70;99.90;;;;;;5011862;28;20046;-57
2024/02/11 09:30:55;;;;;;;7.33;2.60;;;8.70;99.90;;;;;;5013624;28;20053;-59
2024/02/11 09:33:21;;;;;;;6.17;2.90;;;8.70;99.90;;;;;;5016199;28;20038;-59
2024/02/11 09:35:47;;;;;;;7.70;2.73;;;8.70;99.90;;;;;;5015849;28;20022;-59
2024/02/11 09:38:15;;;;;;;6.23;2.63;;;8.70;99.90;;;;;;5016380;28;20064;-58
2024/02/11 09:40:40;;;;;;;9.03;2.87;;;8.80;99.90;;;;;;5016479;28;20560;-58
2024/02/11 09:43:08;;;;;;;8.03;2.73;;;8.70;99.90;;;;;;5015945;28;20021;-59
2024/02/11 09:45:35;;;;;;;7.23;2.73;;;8.70;99.90;;;;;;5015888;28;20036;-58
2024/02/11 09:48:04;;;;;;;7.37;2.87;;;8.70;99.90;;;;;;5015495;28;20026;-58
2024/02/11 09:50:30;;;;;;;9.97;3.70;;;8.70;99.90;;;;;;5015524;28;20037;-59
2024/02/11 09:52:56;;;;;;;7.00;2.43;;;8.70;99.90;;;;;;5015741;28;20380;-59
2024/02/11 09:55:22;;;;;;;11.07;3.80;;;8.70;99.90;;;;;;5015522;28;20113;-58
2024/02/11 09:57:48;;;;;;;6.27;3.17;;;8.80;99.90;;;;;;5015335;28;20467;-57
2024/02/11 10:00:14;;;;;;;9.63;3.00;;;8.80;99.90;;;;;;5015259;28;20095;-59
2024/02/11 10:02:40;;;;;;;8.80;3.10;;;8.80;99.90;;;;;;5015401;28;20065;-59
2024/02/11 10:05:11;;;;;;;10.07;3.47;;;8.90;99.90;;;;;;5015231;28;20030;-55
2024/02/11 10:07:44;;;;;;;9.73;3.20;;;8.80;99.90;;;;;;5015236;28;20289;-59
2024/02/11 10:10:15;;;;;;;10.83;3.50;;;8.80;99.90;;;;;;5013886;28;20045;-56
2024/02/11 10:12:44;;;;;;;8.80;3.40;;;8.90;99.90;;;;;;5013895;28;20033;-58
2024/02/11 10:15:12;;;;;;;8.77;3.50;;;8.90;99.90;;;;;;5015115;28;20049;-56
2024/02/11 10:17:37;;;;;;;9.63;3.27;;;8.90;99.90;;;;;;5014956;28;20442;-59
2024/02/11 10:20:07;;;;;;;8.20;3.43;;;8.90;99.90;;;;;;5014811;28;20041;-59
2024/02/11 10:22:32;;;;;;;10.50;3.60;;;8.90;99.90;;;;;;5015084;28;20426;-57
2024/02/11 10:24:58;;;;;;;8.47;3.37;;;9.00;99.90;;;;;;5014843;28;20032;-59
2024/02/11 10:27:23;;;;;;;7.17;3.50;;;9.10;99.90;;;;;;5029856;22;20037;-55
2024/02/11 10:29:50;;;;;;;7.77;3.37;;;9.20;99.90;;;;;;5013820;28;20049;-50
2024/02/11 10:32:16;;;;;;;9.10;3.67;;;9.30;99.90;;;;;;5014671;28;20090;-51
2024/02/11 10:34:42;;;;;;;11.43;3.37;;;9.40;99.90;;;;;;5014518;28;20030;-51
2024/02/11 10:37:12;;;;;;;9.00;3.17;;;9.40;99.90;;;;;;5014679;28;20120;-53
2024/02/11 10:39:39;;;;;;;7.97;3.10;;;9.60;99.90;;;;;;5014328;28;20044;-53
2024/02/11 10:42:05;;;;;;;9.97;3.40;;;9.70;99.90;;;;;;5014161;28;20060;-51
2024/02/11 10:44:30;;;;;;;9.60;3.37;;;9.70;99.90;;;;;;5014426;28;20025;-51
2024/02/11 10:46:58;;;;;;;6.37;2.70;;;9.80;99.90;;;;;;5014435;28;20060;-51
2024/02/11 10:49:24;;;;;;;9.10;2.80;;;9.90;99.90;;;;;;5014144;28;20045;-50
2024/02/11 10:51:56;;;;;;;6.97;3.40;;;9.90;99.90;;;;;;5014250;28;20030;-50
2024/02/11 10:54:25;;;;;;;8.20;3.63;;;10.00;99.90;;;;;;5014159;28;20486;-49
2024/02/11 10:56:54;;;;;;;7.10;2.95;;;10.10;99.90;;;;;;5014199;28;20088;-50
2024/02/11 10:59:23;;;;;;;;;;;10.20;99.90;;;;;;5014702;28;20489;-49
2024/02/11 11:01:49;;;;;;;10.23;3.40;;;10.40;99.90;;;;;;5014376;28;19909;-49
2024/02/11 11:04:20;;;;;;;9.40;3.30;;;10.60;99.90;;;;;;5014384;28;20390;-49
2024/02/11 11:06:47;;;;;;;9.23;2.87;;;10.60;99.90;;;;;;5014351;28;20045;-48
2024/02/11 11:09:13;;;;;;;5.47;2.60;;;10.50;99.90;;;;;;5013885;28;20033;-50
2024/02/11 11:11:39;;;;;;;7.80;2.90;;;10.60;99.90;;;;;;5015372;28;20326;-50
2024/02/11 11:14:09;;;;;;;7.97;3.00;;;10.50;99.90;;;;;;5014796;28;20038;-50
2024/02/11 11:16:42;;;;;;;10.67;3.43;;;10.60;99.90;;;;;;5013392;28;20040;-51
2024/02/11 11:19:10;;;;;;;6.43;2.90;;;10.50;99.90;;;;;;5013352;28;20414;-52
2024/02/11 11:21:35;;;;;;;9.20;2.60;;;10.50;99.90;;;;;;5014734;28;20030;-49
2024/02/11 11:24:01;;;;;;;7.13;2.90;;;10.50;99.90;;;;;;5014308;28;20030;-51
2024/02/11 11:26:28;;;;;;;5.57;2.33;;;10.50;99.90;;;;;;5013789;28;20561;-54
2024/02/11 11:29:04;;;;;;;8.10;2.40;;;10.50;99.90;;;;;;5011964;28;20046;-51
2024/02/11 11:31:35;;;;;;;11.13;3.13;;;10.50;99.90;;;;;;5013557;28;20034;-49
2024/02/11 11:34:03;;;;;;;6.73;2.73;;;10.50;99.90;;;;;;5013777;28;20041;-50
2024/02/11 11:36:29;;;;;;;8.63;2.67;;;10.60;99.90;;;;;;5013582;28;20076;-49
2024/02/11 11:39:06;;;;;;;6.00;2.50;;;10.50;99.90;;;;;;5013024;28;20054;-49
2024/02/11 11:41:33;;;;;;;6.00;2.30;;;10.60;99.90;;;;;;5013363;28;20065;-52
2024/02/11 11:44:00;;;;;;;8.67;2.63;;;10.60;99.90;;;;;;5013096;28;20026;-50
2024/02/11 11:46:26;;;;;;;16.47;7.90;;;10.60;99.90;;;;;;5013214;28;20109;-51
2024/02/11 11:48:56;;;;;;;8.07;2.60;;;10.70;99.90;;;;;;5012961;28;20030;-49
2024/02/11 11:51:22;;;;;;;;;;;10.60;99.90;;;;;;5013651;28;20038;-50
2024/02/11 11:53:49;;;;;;;7.20;2.67;;;10.60;99.90;;;;;;5012257;28;20274;-48
2024/02/11 11:56:18;;;;;;;7.73;2.43;;;10.60;99.90;;;;;;5012886;28;20479;-49
2024/02/11 11:58:46;;;;;;;5.87;2.03;;;10.50;99.90;;;;;;5012655;28;20029;-49
2024/02/11 12:01:14;;;;;;;9.57;2.53;;;10.50;99.90;;;;;;5012897;28;20156;-49
2024/02/11 12:03:41;;;;;;;4.87;2.50;;;10.50;99.90;;;;;;5012782;28;20037;-54
2024/02/11 12:06:08;;;;;;;6.53;2.47;;;10.60;99.90;;;;;;5012893;28;20383;-50
2024/02/11 12:08:34;;;;;;;7.90;3.20;;;10.60;99.90;;;;;;5011545;28;20095;-53
2024/02/11 12:11:04;;;;;;;8.00;3.00;;;10.70;99.90;;;;;;5012714;28;20069;-51
2024/02/11 12:13:32;;;;;;;4.77;2.00;;;10.70;99.90;;;;;;5012565;28;20112;-50
2024/02/11 12:15:59;;;;;;;8.33;2.33;;;10.70;99.90;;;;;;5012907;28;20164;-49
2024/02/11 12:18:26;;;;;;;7.83;2.13;;;10.70;99.90;;;;;;5012425;28;20030;-49
2024/02/11 12:20:55;;;;;;;10.00;2.67;;;10.90;99.90;;;;;;5012531;28;20056;-49
2024/02/11 12:23:21;;;;;;;10.52;2.58;;;11.00;99.90;;;;;;5012653;28;20077;-51
2024/02/11 12:25:54;;;;;;;5.40;2.30;;;11.10;99.90;;;;;;5012619;28;20067;-49
2024/02/11 12:28:27;;;;;;;7.17;2.03;;;11.20;99.90;;;;;;5012077;28;20041;-50
2024/02/11 12:31:08;;;;;;;8.27;2.30;;;11.50;99.90;;;;;;5012412;28;20042;-48
2024/02/11 12:33:39;;;;;;;7.93;2.58;;;11.70;99.90;;;;;;5012362;28;20030;-51
2024/02/11 12:36:17;;;;;;;5.03;1.40;;;11.70;99.90;;;;;;5012384;28;20260;-51
2024/02/11 12:38:44;;;;;;;5.03;2.03;;;11.80;99.90;;;;;;5012109;28;20030;-49
2024/02/11 12:41:11;;;;;;;7.30;2.00;;;11.70;99.90;;;;;;5012369;28;20241;-48
2024/02/11 12:43:39;;;;;;;6.05;1.83;;;11.50;99.90;;;;;;5012144;28;20040;-50
2024/02/11 12:46:08;;;;;;;8.85;1.85;;;11.40;99.90;;;;;;5012283;28;20399;-50
2024/02/11 12:48:34;;;;;;;;;;;11.30;99.90;;;;;;5011382;28;20040;-52
2024/02/11 12:51:01;;;;;;;8.57;1.87;;;11.40;99.90;;;;;;5012084;28;20000;-49
2024/02/11 12:53:27;;;;;;;5.70;1.50;;;11.30;99.90;;;;;;5012245;28;20026;-49